createdAt,value
2017-11-09T00:00:52.163Z,62.70
2017-11-09T00:01:52.199Z,62.40
2017-11-09T00:02:52.236Z,60.50
2017-11-09T00:03:52.273Z,60.80
2017-11-09T00:04:52.336Z,61.90
2017-11-09T00:05:52.344Z,61.80
2017-11-09T00:06:52.402Z,64.40
2017-11-09T00:07:52.414Z,60.50
2017-11-09T00:08:52.449Z,63.30
2017-11-09T00:09:52.491Z,62.40
2017-11-09T00:10:52.537Z,62.50
2017-11-09T00:11:52.559Z,62.30
2017-11-09T00:12:52.598Z,60.60
2017-11-09T00:13:52.641Z,61.20
2017-11-09T00:14:52.674Z,63.00
2017-11-09T00:15:52.708Z,59.50
2017-11-09T00:16:52.737Z,59.40
2017-11-09T00:17:52.774Z,60.40
2017-11-09T00:18:52.810Z,60.40
2017-11-09T00:19:52.850Z,61.40
2017-11-09T00:20:52.882Z,60.10
2017-11-09T00:21:52.916Z,59.60
2017-11-09T00:22:53.006Z,60.90
2017-11-09T00:23:52.987Z,59.20
2017-11-09T00:24:53.092Z,59.50
2017-11-09T00:25:53.058Z,60.30
2017-11-09T00:26:53.097Z,61.30
2017-11-09T00:27:53.134Z,60.70
2017-11-09T00:28:53.166Z,60.30
2017-11-09T00:29:53.205Z,59.10
2017-11-09T00:30:53.237Z,60.10
2017-11-09T00:31:53.294Z,60.20
2017-11-09T00:32:53.310Z,60.40
2017-11-09T00:33:53.346Z,62.00
2017-11-09T00:34:53.383Z,60.20
2017-11-09T00:35:53.417Z,61.60
2017-11-09T00:36:53.450Z,59.70
2017-11-09T00:37:53.492Z,59.70
2017-11-09T00:38:53.526Z,61.70
2017-11-09T00:39:53.565Z,60.90
2017-11-09T00:40:53.596Z,59.80
2017-11-09T00:41:53.628Z,60.60
2017-11-09T00:42:53.665Z,59.60
2017-11-09T00:43:53.718Z,61.00
2017-11-09T00:44:53.737Z,59.10
2017-11-09T00:45:53.772Z,59.30
2017-11-09T00:46:53.806Z,61.00
2017-11-09T00:47:53.844Z,61.70
2017-11-09T00:48:53.881Z,59.40
2017-11-09T00:49:53.916Z,58.20
2017-11-09T00:50:53.952Z,58.00
2017-11-09T00:51:53.998Z,59.10
2017-11-09T00:52:54.023Z,58.90
2017-11-09T00:53:54.063Z,59.30
2017-11-09T00:54:54.094Z,59.10
2017-11-09T00:55:54.126Z,59.30
2017-11-09T00:56:54.170Z,59.20
2017-11-09T00:57:54.203Z,59.10
2017-11-09T00:58:54.235Z,60.50
2017-11-09T00:59:54.278Z,58.90
2017-11-09T01:00:54.307Z,61.10
2017-11-09T01:01:54.343Z,59.60
2017-11-09T01:02:54.387Z,59.60
2017-11-09T01:03:54.413Z,59.10
2017-11-09T01:04:54.454Z,59.30
2017-11-09T01:05:54.487Z,58.40
2017-11-09T01:06:54.524Z,61.10
2017-11-09T01:07:54.569Z,60.50
2017-11-09T01:08:54.592Z,58.80
2017-11-09T01:09:54.632Z,59.20
2017-11-09T01:10:54.683Z,61.30
2017-11-09T01:11:54.701Z,61.00
2017-11-09T01:12:54.738Z,60.20
2017-11-09T01:13:54.773Z,59.60
2017-11-09T01:14:54.808Z,59.70
2017-11-09T01:15:54.843Z,61.60
2017-11-09T01:16:54.893Z,61.60
2017-11-09T01:17:54.912Z,60.30
2017-11-09T01:18:54.982Z,60.30
2017-11-09T01:19:54.983Z,59.80
2017-11-09T01:20:55.029Z,57.90
2017-11-09T01:21:55.054Z,59.90
2017-11-09T01:22:55.096Z,60.00
2017-11-09T01:23:55.129Z,59.20
2017-11-09T01:24:55.160Z,60.60
2017-11-09T01:25:55.211Z,62.50
2017-11-09T01:26:55.234Z,62.00
2017-11-09T01:27:55.282Z,63.50
2017-11-09T01:28:55.304Z,59.90
2017-11-09T01:29:55.343Z,61.90
2017-11-09T01:30:55.380Z,60.50
2017-11-09T01:31:55.411Z,61.20
2017-11-09T01:32:55.451Z,62.10
2017-11-09T01:33:55.481Z,61.20
2017-11-09T01:34:55.521Z,60.50
2017-11-09T01:35:55.560Z,62.30
2017-11-09T01:36:55.589Z,59.90
2017-11-09T01:37:55.626Z,58.00
2017-11-09T01:38:55.662Z,58.20
2017-11-09T01:39:55.700Z,58.20
2017-11-09T01:40:55.732Z,57.10
2017-11-09T01:41:55.768Z,58.60
2017-11-09T01:42:55.804Z,56.30
2017-11-09T01:43:55.842Z,60.60
2017-11-09T01:44:55.876Z,58.40
2017-11-09T01:45:55.910Z,59.00
2017-11-09T01:46:55.944Z,57.00
2017-11-09T01:47:55.982Z,60.20
2017-11-09T01:48:56.019Z,58.90
2017-11-09T01:49:56.052Z,60.30
2017-11-09T01:50:56.091Z,58.20
2017-11-09T01:51:56.126Z,57.90
2017-11-09T01:52:56.168Z,59.90
2017-11-09T01:53:56.192Z,58.50
2017-11-09T01:54:56.230Z,58.10
2017-11-09T01:55:56.266Z,61.20
2017-11-09T01:56:56.314Z,61.00
2017-11-09T01:57:56.336Z,60.50
2017-11-09T01:58:56.371Z,59.00
2017-11-09T01:59:56.405Z,61.10
2017-11-09T02:00:56.443Z,59.00
2017-11-09T02:01:56.477Z,59.80
2017-11-09T02:02:56.513Z,58.80
2017-11-09T02:03:56.557Z,58.60
2017-11-09T02:04:56.585Z,58.70
2017-11-09T02:05:56.621Z,56.90
2017-11-09T02:06:56.665Z,59.50
2017-11-09T02:07:56.692Z,61.20
2017-11-09T02:08:56.726Z,59.50
2017-11-09T02:09:56.764Z,61.20
2017-11-09T02:10:56.797Z,59.70
2017-11-09T02:11:56.835Z,60.40
2017-11-09T02:12:56.921Z,61.10
2017-11-09T02:13:56.903Z,61.00
2017-11-09T02:14:56.947Z,59.20
2017-11-09T02:15:56.972Z,60.10
2017-11-09T02:16:57.012Z,59.40
2017-11-09T02:17:57.041Z,59.40
2017-11-09T02:18:57.082Z,59.40
2017-11-09T02:19:57.115Z,60.00
2017-11-09T02:20:57.150Z,59.70
2017-11-09T02:21:57.200Z,60.00
2017-11-09T02:22:57.223Z,60.10
2017-11-09T02:23:57.258Z,59.20
2017-11-09T02:24:57.293Z,60.40
2017-11-09T02:25:57.324Z,59.40
2017-11-09T02:26:57.361Z,62.10
2017-11-09T02:27:57.398Z,60.50
2017-11-09T02:28:57.435Z,61.10
2017-11-09T02:29:57.481Z,60.70
2017-11-09T02:30:57.503Z,61.80
2017-11-09T02:31:57.538Z,62.20
2017-11-09T02:32:57.573Z,60.80
2017-11-09T02:33:57.613Z,62.00
2017-11-09T02:34:57.646Z,60.80
2017-11-09T02:35:57.688Z,61.30
2017-11-09T02:36:57.723Z,61.40
2017-11-09T02:37:57.751Z,59.60
2017-11-09T02:38:57.788Z,61.10
2017-11-09T02:39:57.823Z,59.60
2017-11-09T02:40:57.859Z,61.00
2017-11-09T02:41:57.892Z,61.50
2017-11-09T02:42:57.928Z,60.80
2017-11-09T02:43:57.964Z,60.20
2017-11-09T02:44:58.002Z,61.50
2017-11-09T02:45:58.034Z,60.50
2017-11-09T02:46:58.074Z,61.20
2017-11-09T02:47:58.107Z,61.10
2017-11-09T02:48:58.144Z,57.90
2017-11-09T02:49:58.175Z,61.00
2017-11-09T02:50:58.214Z,66.10
2017-11-09T02:51:58.246Z,59.40
2017-11-09T02:52:58.284Z,61.60
2017-11-09T02:53:58.318Z,60.10
2017-11-09T02:54:58.358Z,58.80
2017-11-09T02:55:58.389Z,60.90
2017-11-09T02:56:58.429Z,58.50
2017-11-09T02:57:58.560Z,57.50
2017-11-09T02:58:58.510Z,59.50
2017-11-09T02:59:58.537Z,60.60
2017-11-09T03:00:58.566Z,58.40
2017-11-09T03:01:58.604Z,60.90
2017-11-09T03:02:58.636Z,60.10
2017-11-09T03:03:58.675Z,60.60
2017-11-09T03:04:58.707Z,61.10
2017-11-09T03:05:58.745Z,61.40
2017-11-09T03:06:58.878Z,60.10
2017-11-09T03:07:58.814Z,59.90
2017-11-09T03:08:58.849Z,60.70
2017-11-09T03:09:58.884Z,57.80
2017-11-09T03:10:58.919Z,60.20
2017-11-09T03:11:58.957Z,60.10
2017-11-09T03:12:58.989Z,59.50
2017-11-09T03:13:59.026Z,61.50
2017-11-09T03:14:59.060Z,61.90
2017-11-09T03:15:59.109Z,60.80
2017-11-09T03:16:59.136Z,59.00
2017-11-09T03:17:59.169Z,61.30
2017-11-09T03:18:59.208Z,60.70
2017-11-09T03:19:59.241Z,60.50
2017-11-09T03:20:59.276Z,61.00
2017-11-09T03:21:59.314Z,59.50
2017-11-09T03:22:59.345Z,58.60
2017-11-09T03:23:59.381Z,58.90
2017-11-09T03:24:59.420Z,59.10
2017-11-09T03:25:59.451Z,58.20
2017-11-09T03:26:59.495Z,57.50
2017-11-09T03:27:59.525Z,58.80
2017-11-09T03:28:59.558Z,61.40
2017-11-09T03:29:59.597Z,62.30
2017-11-09T03:30:59.633Z,59.60
2017-11-09T03:31:59.665Z,59.80
2017-11-09T03:32:59.700Z,57.60
2017-11-09T03:33:59.735Z,59.40
2017-11-09T03:34:59.771Z,59.20
2017-11-09T03:35:59.813Z,58.50
2017-11-09T03:36:59.845Z,59.40
2017-11-09T03:37:59.878Z,58.80
2017-11-09T03:38:59.920Z,59.40
2017-11-09T03:39:59.952Z,59.70
2017-11-09T03:40:59.986Z,58.90
2017-11-09T03:42:00.038Z,58.00
2017-11-09T03:43:00.060Z,58.30
2017-11-09T03:44:00.109Z,58.30
2017-11-09T03:45:00.130Z,56.80
2017-11-09T03:46:00.171Z,56.70
2017-11-09T03:47:00.214Z,57.00
2017-11-09T03:48:00.237Z,60.10
2017-11-09T03:49:00.275Z,59.10
2017-11-09T03:50:00.309Z,59.30
2017-11-09T03:51:00.345Z,57.10
2017-11-09T03:52:00.390Z,58.60
2017-11-09T03:53:00.418Z,58.70
2017-11-09T03:54:00.454Z,58.00
2017-11-09T03:55:00.493Z,55.80
2017-11-09T03:56:00.523Z,57.30
2017-11-09T03:57:00.561Z,56.00
2017-11-09T03:58:00.598Z,56.60
2017-11-09T03:59:00.635Z,58.40
2017-11-09T04:00:00.670Z,56.50
2017-11-09T04:01:00.751Z,57.90
2017-11-09T04:02:00.737Z,57.00
2017-11-09T04:03:00.778Z,55.60
2017-11-09T04:04:00.807Z,58.10
2017-11-09T04:05:00.849Z,58.50
2017-11-09T04:06:00.881Z,57.60
2017-11-09T04:07:00.917Z,56.90
2017-11-09T04:08:00.957Z,57.50
2017-11-09T04:09:00.987Z,56.00
2017-11-09T04:10:01.046Z,58.00
2017-11-09T04:11:01.059Z,57.40
2017-11-09T04:12:01.108Z,56.60
2017-11-09T04:13:01.131Z,57.30
2017-11-09T04:14:01.168Z,57.40
2017-11-09T04:15:01.200Z,55.90
2017-11-09T04:16:01.240Z,57.20
2017-11-09T04:17:01.284Z,57.20
2017-11-09T04:18:01.311Z,57.70
2017-11-09T04:19:01.349Z,56.40
2017-11-09T04:20:01.383Z,56.10
2017-11-09T04:21:01.420Z,57.20
2017-11-09T04:22:01.452Z,57.50
2017-11-09T04:23:01.489Z,57.00
2017-11-09T04:24:01.529Z,56.90
2017-11-09T04:25:01.559Z,58.20
2017-11-09T04:26:01.595Z,56.30
2017-11-09T04:27:01.630Z,55.80
2017-11-09T04:28:01.670Z,58.20
2017-11-09T04:29:01.712Z,57.10
2017-11-09T04:30:01.746Z,56.30
2017-11-09T04:31:01.773Z,57.30
2017-11-09T04:32:01.810Z,56.80
2017-11-09T04:33:01.850Z,56.30
2017-11-09T04:34:01.879Z,56.20
2017-11-09T04:35:01.916Z,58.40
2017-11-09T04:36:01.953Z,56.20
2017-11-09T04:37:01.989Z,56.40
2017-11-09T04:38:02.022Z,55.80
2017-11-09T04:39:02.067Z,57.40
2017-11-09T04:40:02.094Z,56.30
2017-11-09T04:41:02.152Z,57.70
2017-11-09T04:42:02.165Z,58.40
2017-11-09T04:43:02.203Z,57.60
2017-11-09T04:44:02.239Z,57.60
2017-11-09T04:45:02.273Z,56.50
2017-11-09T04:46:02.311Z,57.60
2017-11-09T04:47:02.343Z,58.30
2017-11-09T04:48:02.390Z,58.00
2017-11-09T04:49:02.416Z,57.00
2017-11-09T04:50:02.459Z,57.80
2017-11-09T04:51:02.490Z,60.10
2017-11-09T04:52:02.524Z,57.10
2017-11-09T04:53:02.561Z,58.00
2017-11-09T04:54:02.595Z,59.40
2017-11-09T04:55:02.690Z,59.20
2017-11-09T04:56:02.665Z,56.90
2017-11-09T04:57:02.720Z,57.20
2017-11-09T04:58:02.738Z,58.10
2017-11-09T04:59:02.775Z,58.50
2017-11-09T05:00:02.811Z,59.00
2017-11-09T05:01:02.844Z,58.10
2017-11-09T05:02:02.882Z,59.50
2017-11-09T05:03:02.921Z,57.90
2017-11-09T05:04:03.030Z,57.30
2017-11-09T05:05:02.986Z,57.70
2017-11-09T05:06:03.328Z,57.50
2017-11-09T05:07:03.057Z,59.00
2017-11-09T05:08:03.094Z,58.80
2017-11-09T05:09:03.132Z,57.70
2017-11-09T05:10:03.168Z,59.80
2017-11-09T05:11:03.202Z,61.10
2017-11-09T05:12:03.236Z,59.10
2017-11-09T05:13:03.326Z,60.90
2017-11-09T05:14:03.307Z,60.90
2017-11-09T05:15:03.359Z,60.60
2017-11-09T05:16:03.378Z,59.90
2017-11-09T05:17:03.423Z,62.00
2017-11-09T05:18:03.453Z,59.90
2017-11-09T05:19:03.485Z,63.60
2017-11-09T05:20:03.521Z,61.40
2017-11-09T05:21:03.555Z,62.00
2017-11-09T05:22:03.592Z,62.20
2017-11-09T05:23:03.627Z,62.90
2017-11-09T05:24:03.666Z,61.10
2017-11-09T05:25:03.702Z,60.70
2017-11-09T05:26:03.735Z,61.80
2017-11-09T05:27:03.773Z,60.80
2017-11-09T05:28:03.807Z,61.30
2017-11-09T05:29:03.843Z,61.90
2017-11-09T05:30:03.877Z,62.40
2017-11-09T05:31:03.912Z,60.50
2017-11-09T05:32:03.949Z,63.80
2017-11-09T05:33:03.986Z,64.30
2017-11-09T05:34:04.023Z,61.60
2017-11-09T05:35:04.056Z,63.80
2017-11-09T05:36:04.091Z,64.80
2017-11-09T05:37:04.126Z,65.10
2017-11-09T05:38:04.164Z,63.10
2017-11-09T05:39:04.196Z,62.30
2017-11-09T05:40:04.245Z,63.00
2017-11-09T05:41:04.265Z,64.30
2017-11-09T05:42:04.306Z,65.00
2017-11-09T05:43:04.340Z,63.30
2017-11-09T05:44:04.373Z,63.10
2017-11-09T05:45:04.408Z,62.70
2017-11-09T05:46:04.444Z,63.80
2017-11-09T05:47:04.483Z,64.80
2017-11-09T05:48:04.517Z,62.10
2017-11-09T05:49:04.657Z,62.70
2017-11-09T05:50:04.588Z,65.50
2017-11-09T05:51:04.674Z,66.00
2017-11-09T05:52:04.664Z,67.20
2017-11-09T05:53:04.691Z,64.40
2017-11-09T05:54:04.737Z,63.90
2017-11-09T05:55:04.767Z,64.60
2017-11-09T05:56:04.804Z,65.50
2017-11-09T05:57:04.837Z,64.00
2017-11-09T05:58:04.968Z,66.90
2017-11-09T05:59:04.904Z,66.50
2017-11-09T06:00:04.950Z,64.00
2017-11-09T06:01:04.979Z,63.70
2017-11-09T06:02:05.016Z,65.20
2017-11-09T06:03:05.051Z,65.40
2017-11-09T06:04:05.084Z,63.30
2017-11-09T06:05:05.124Z,64.90
2017-11-09T06:06:05.156Z,65.90
2017-11-09T06:07:05.210Z,63.80
2017-11-09T06:08:05.225Z,65.70
2017-11-09T06:09:05.317Z,65.60
2017-11-09T06:10:05.299Z,63.50
2017-11-09T06:11:05.342Z,61.60
2017-11-09T06:12:05.368Z,63.50
2017-11-09T06:13:05.405Z,63.60
2017-11-09T06:14:05.446Z,64.30
2017-11-09T06:15:05.475Z,64.80
2017-11-09T06:16:05.511Z,63.00
2017-11-09T06:17:05.544Z,63.40
2017-11-09T06:18:05.579Z,63.60
2017-11-09T06:19:05.620Z,63.70
2017-11-09T06:20:05.658Z,66.80
2017-11-09T06:21:05.688Z,65.10
2017-11-09T06:22:05.726Z,62.60
2017-11-09T06:23:05.758Z,62.50
2017-11-09T06:24:05.810Z,63.70
2017-11-09T06:25:05.829Z,62.40
2017-11-09T06:26:05.865Z,61.60
2017-11-09T06:27:05.901Z,61.90
2017-11-09T06:28:05.937Z,64.60
2017-11-09T06:29:05.979Z,62.00
2017-11-09T06:30:06.008Z,63.10
2017-11-09T06:31:06.047Z,62.50
2017-11-09T06:32:06.080Z,62.30
2017-11-09T06:33:06.117Z,62.20
2017-11-09T06:34:06.154Z,63.10
2017-11-09T06:35:06.187Z,62.00
2017-11-09T06:36:06.222Z,60.70
2017-11-09T06:37:06.261Z,60.90
2017-11-09T06:38:06.298Z,63.50
2017-11-09T06:39:06.334Z,61.10
2017-11-09T06:40:06.382Z,62.20
2017-11-09T06:41:06.401Z,62.00
2017-11-09T06:42:06.439Z,63.50
2017-11-09T06:43:06.552Z,61.90
2017-11-09T06:44:06.511Z,62.40
2017-11-09T06:45:06.597Z,62.90
2017-11-09T06:46:06.580Z,63.00
2017-11-09T06:47:06.617Z,62.10
2017-11-09T06:48:06.654Z,63.20
2017-11-09T06:49:06.689Z,62.80
2017-11-09T06:50:06.722Z,63.70
2017-11-09T06:51:06.757Z,65.00
2017-11-09T06:52:06.840Z,64.80
2017-11-09T06:53:06.832Z,63.60
2017-11-09T06:54:06.881Z,61.70
2017-11-09T06:55:06.902Z,64.80
2017-11-09T06:56:06.937Z,65.60
2017-11-09T06:57:06.979Z,65.60
2017-11-09T06:58:07.019Z,63.50
2017-11-09T06:59:07.047Z,62.90
2017-11-09T07:00:07.081Z,62.40
2017-11-09T07:01:07.226Z,64.20
2017-11-09T07:02:07.157Z,66.00
2017-11-09T07:03:07.216Z,64.60
2017-11-09T07:04:07.227Z,63.10
2017-11-09T07:05:07.264Z,64.60
2017-11-09T07:06:07.305Z,62.70
2017-11-09T07:07:07.331Z,61.60
2017-11-09T07:08:07.369Z,65.30
2017-11-09T07:09:07.409Z,63.20
2017-11-09T07:10:07.444Z,62.10
2017-11-09T07:11:07.474Z,61.60
2017-11-09T07:12:07.511Z,62.50
2017-11-09T07:13:07.548Z,61.80
2017-11-09T07:14:07.583Z,61.70
2017-11-09T07:15:07.633Z,61.80
2017-11-09T07:16:07.654Z,62.80
2017-11-09T07:17:07.694Z,62.30
2017-11-09T07:18:07.728Z,61.90
2017-11-09T07:19:07.762Z,61.20
2017-11-09T07:20:07.799Z,61.50
2017-11-09T07:21:07.836Z,62.80
2017-11-09T07:22:07.869Z,61.40
2017-11-09T07:23:07.910Z,62.70
2017-11-09T07:24:07.942Z,61.50
2017-11-09T07:25:07.983Z,62.80
2017-11-09T07:26:08.015Z,63.30
2017-11-09T07:27:08.050Z,60.70
2017-11-09T07:28:08.089Z,61.90
2017-11-09T07:29:08.124Z,61.10
2017-11-09T07:30:08.160Z,60.40
2017-11-09T07:31:08.194Z,59.60
2017-11-09T07:32:08.230Z,59.60
2017-11-09T07:33:08.265Z,62.70
2017-11-09T07:34:08.301Z,61.50
2017-11-09T07:35:08.340Z,63.10
2017-11-09T07:36:08.373Z,61.00
2017-11-09T07:37:08.543Z,63.30
2017-11-09T07:38:08.446Z,61.90
2017-11-09T07:39:08.536Z,61.00
2017-11-09T07:40:08.521Z,58.80
2017-11-09T07:41:08.555Z,59.70
2017-11-09T07:42:08.609Z,59.70
2017-11-09T07:43:08.629Z,59.60
2017-11-09T07:44:08.663Z,61.00
2017-11-09T07:45:08.703Z,61.50
2017-11-09T07:46:08.745Z,62.30
2017-11-09T07:47:08.780Z,59.30
2017-11-09T07:48:08.811Z,59.50
2017-11-09T07:49:08.843Z,61.70
2017-11-09T07:50:08.884Z,60.50
2017-11-09T07:51:08.915Z,60.90
2017-11-09T07:52:08.951Z,63.20
2017-11-09T07:53:08.991Z,61.00
2017-11-09T07:54:09.025Z,62.70
2017-11-09T07:55:09.182Z,61.50
2017-11-09T07:56:09.106Z,60.50
2017-11-09T07:57:09.208Z,60.40
2017-11-09T07:58:09.171Z,61.00
2017-11-09T07:59:09.211Z,59.70
2017-11-09T08:00:09.249Z,59.50
2017-11-09T08:01:09.283Z,61.30
2017-11-09T08:02:09.321Z,61.30
2017-11-09T08:03:09.366Z,60.50
2017-11-09T08:04:09.392Z,59.90
2017-11-09T08:05:09.429Z,60.10
2017-11-09T08:06:09.461Z,60.30
2017-11-09T08:07:09.502Z,60.00
2017-11-09T08:08:09.541Z,60.30
2017-11-09T08:09:09.572Z,60.20
2017-11-09T08:10:09.612Z,60.70
2017-11-09T08:11:09.644Z,59.10
2017-11-09T08:12:09.684Z,57.70
2017-11-09T08:13:09.720Z,56.80
2017-11-09T08:14:09.762Z,57.30
2017-11-09T08:15:09.793Z,59.50
2017-11-09T08:16:09.830Z,57.90
2017-11-09T08:17:09.867Z,58.40
2017-11-09T08:18:09.905Z,59.40
2017-11-09T08:19:09.943Z,59.10
2017-11-09T08:20:09.979Z,59.20
2017-11-09T08:21:10.013Z,59.80
2017-11-09T08:22:10.048Z,57.90
2017-11-09T08:23:10.084Z,60.20
2017-11-09T08:24:10.124Z,59.90
2017-11-09T08:25:10.164Z,58.30
2017-11-09T08:26:10.197Z,58.70
2017-11-09T08:27:10.233Z,58.00
2017-11-09T08:28:10.285Z,57.50
2017-11-09T08:29:10.308Z,54.70
2017-11-09T08:30:10.345Z,55.90
2017-11-09T08:31:10.391Z,56.90
2017-11-09T08:32:10.419Z,56.00
2017-11-09T08:33:10.468Z,58.10
2017-11-09T08:34:10.494Z,59.80
2017-11-09T08:35:10.834Z,59.70
2017-11-09T08:36:10.572Z,58.60
2017-11-09T08:37:10.610Z,57.60
2017-11-09T08:38:10.652Z,57.70
2017-11-09T08:39:10.680Z,59.10
2017-11-09T08:40:10.776Z,58.60
2017-11-09T08:41:10.756Z,58.70
2017-11-09T08:42:10.826Z,58.10
2017-11-09T08:43:10.830Z,58.50
2017-11-09T08:44:10.868Z,59.10
2017-11-09T08:45:10.907Z,57.40
2017-11-09T08:46:10.943Z,58.10
2017-11-09T08:47:10.986Z,59.00
2017-11-09T08:48:11.019Z,59.00
2017-11-09T08:49:11.109Z,59.20
2017-11-09T08:50:11.097Z,59.50
2017-11-09T08:51:11.129Z,59.00
2017-11-09T08:52:11.164Z,59.00
2017-11-09T08:53:11.206Z,58.60
2017-11-09T08:54:11.243Z,58.20
2017-11-09T08:55:11.278Z,59.40
2017-11-09T08:56:11.318Z,59.60
2017-11-09T08:57:11.351Z,59.50
2017-11-09T08:58:11.439Z,58.20
2017-11-09T08:59:11.425Z,58.60
2017-11-09T09:00:11.461Z,58.80
2017-11-09T09:01:11.509Z,59.00
2017-11-09T09:02:11.551Z,57.30
2017-11-09T09:03:11.582Z,58.30
2017-11-09T09:04:11.610Z,57.00
2017-11-09T09:05:11.648Z,57.50
2017-11-09T09:06:11.691Z,57.90
2017-11-09T09:07:11.727Z,57.30
2017-11-09T09:08:11.760Z,56.90
2017-11-09T09:09:11.798Z,59.00
2017-11-09T09:10:11.832Z,56.90
2017-11-09T09:11:11.875Z,57.00
2017-11-09T09:12:11.908Z,56.50
2017-11-09T09:13:11.947Z,58.10
2017-11-09T09:14:11.981Z,57.00
2017-11-09T09:15:12.019Z,54.40
2017-11-09T09:16:12.057Z,55.50
2017-11-09T09:17:12.092Z,58.30
2017-11-09T09:18:12.129Z,56.70
2017-11-09T09:19:12.171Z,57.60
2017-11-09T09:20:12.208Z,56.30
2017-11-09T09:21:12.241Z,56.70
2017-11-09T09:22:12.282Z,55.60
2017-11-09T09:23:12.320Z,56.50
2017-11-09T09:24:12.358Z,56.70
2017-11-09T09:25:12.399Z,57.30
2017-11-09T09:26:12.430Z,55.70
2017-11-09T09:27:12.469Z,54.70
2017-11-09T09:28:12.510Z,54.40
2017-11-09T09:29:12.547Z,55.10
2017-11-09T09:30:12.592Z,55.00
2017-11-09T09:31:12.621Z,54.60
2017-11-09T09:32:12.670Z,54.00
2017-11-09T09:33:12.703Z,54.90
2017-11-09T09:34:12.782Z,55.30
2017-11-09T09:35:12.769Z,53.60
2017-11-09T09:36:12.808Z,54.40
2017-11-09T09:37:12.860Z,53.50
2017-11-09T09:38:12.882Z,54.20
2017-11-09T09:39:12.920Z,54.40
2017-11-09T09:40:12.960Z,53.00
2017-11-09T09:41:13.010Z,53.70
2017-11-09T09:42:13.046Z,52.30
2017-11-09T09:43:13.102Z,54.90
2017-11-09T09:44:13.112Z,52.90
2017-11-09T09:45:13.152Z,54.40
2017-11-09T09:46:13.192Z,51.70
2017-11-09T09:47:13.230Z,51.70
2017-11-09T09:48:13.266Z,48.90
2017-11-09T09:49:13.309Z,51.50
2017-11-09T09:50:13.352Z,50.30
2017-11-09T09:51:13.383Z,49.10
2017-11-09T09:52:13.422Z,48.80
2017-11-09T09:53:13.462Z,47.70
2017-11-09T09:54:13.500Z,49.30
2017-11-09T09:55:13.548Z,51.10
2017-11-09T09:56:13.581Z,52.00
2017-11-09T09:57:13.615Z,51.10
2017-11-09T09:58:13.654Z,51.70
2017-11-09T09:59:13.692Z,49.70
2017-11-09T10:00:13.729Z,50.40
2017-11-09T10:01:13.768Z,50.60
2017-11-09T10:02:13.812Z,50.10
2017-11-09T10:03:13.844Z,51.10
2017-11-09T10:04:13.883Z,51.50
2017-11-09T10:05:13.922Z,52.10
2017-11-09T10:06:13.960Z,52.90
2017-11-09T10:07:14.003Z,51.80
2017-11-09T10:08:14.039Z,81.70
2017-11-09T10:09:14.085Z,56.30
2017-11-09T10:10:14.115Z,53.90
2017-11-09T10:11:14.152Z,49.70
2017-11-09T10:12:14.202Z,49.00
2017-11-09T10:13:14.237Z,44.50
2017-11-09T10:14:14.271Z,49.20
2017-11-09T10:15:14.310Z,49.70
2017-11-09T10:16:14.358Z,53.90
2017-11-09T10:17:14.386Z,60.70
2017-11-09T10:18:14.420Z,44.70
2017-11-09T10:19:14.458Z,46.60
2017-11-09T10:20:14.501Z,46.00
2017-11-09T10:21:14.536Z,46.60
2017-11-09T10:22:14.572Z,46.80
2017-11-09T10:23:14.611Z,46.30
2017-11-09T10:24:14.852Z,49.40
2017-11-09T10:25:14.691Z,51.60
2017-11-09T10:26:14.727Z,53.40
2017-11-09T10:27:14.761Z,52.40
2017-11-09T10:28:14.801Z,52.10
2017-11-09T10:29:14.841Z,47.30
2017-11-09T10:30:14.879Z,47.90
2017-11-09T10:31:14.920Z,44.80
2017-11-09T10:32:14.951Z,55.60
2017-11-09T10:33:15.025Z,54.10
2017-11-09T10:34:15.027Z,48.20
2017-11-09T10:35:15.086Z,45.40
2017-11-09T10:36:15.101Z,45.30
2017-11-09T10:37:15.141Z,47.50
2017-11-09T10:38:15.174Z,50.70
2017-11-09T10:39:15.224Z,51.10
2017-11-09T10:40:15.251Z,45.30
2017-11-09T10:41:15.291Z,44.70
2017-11-09T10:42:15.338Z,44.70
2017-11-09T10:43:15.362Z,43.60
2017-11-09T10:44:15.405Z,45.40
2017-11-09T10:45:15.440Z,46.60
2017-11-09T10:46:15.477Z,45.70
2017-11-09T10:47:15.513Z,46.90
2017-11-09T10:48:15.551Z,47.60
2017-11-09T10:49:15.586Z,48.20
2017-11-09T10:50:15.626Z,46.70
2017-11-09T10:51:15.675Z,47.60
2017-11-09T10:52:15.704Z,48.10
2017-11-09T10:53:15.736Z,48.40
2017-11-09T10:54:15.772Z,48.90
2017-11-09T10:55:15.812Z,47.10
2017-11-09T10:56:15.849Z,48.70
2017-11-09T10:57:15.887Z,47.70
2017-11-09T10:58:15.921Z,46.80
2017-11-09T10:59:15.962Z,48.00
2017-11-09T11:00:15.996Z,49.20
2017-11-09T11:01:16.034Z,47.60
2017-11-09T11:02:16.073Z,47.80
2017-11-09T11:03:16.110Z,46.80
2017-11-09T11:04:16.149Z,47.50
2017-11-09T11:05:16.185Z,47.50
2017-11-09T11:06:16.218Z,47.30
2017-11-09T11:07:16.260Z,45.50
2017-11-09T11:08:16.310Z,46.30
2017-11-09T11:09:16.332Z,49.70
2017-11-09T11:10:16.365Z,47.40
2017-11-09T11:11:16.403Z,48.60
2017-11-09T11:12:16.444Z,45.90
2017-11-09T11:13:16.483Z,48.90
2017-11-09T11:14:16.515Z,49.10
2017-11-09T11:15:16.553Z,48.90
2017-11-09T11:16:16.675Z,49.00
2017-11-09T11:17:16.625Z,47.20
2017-11-09T11:18:16.706Z,46.60
2017-11-09T11:19:16.709Z,43.50
2017-11-09T11:20:16.744Z,46.10
2017-11-09T11:21:16.778Z,46.50
2017-11-09T11:22:16.814Z,46.50
2017-11-09T11:23:16.849Z,44.50
2017-11-09T11:24:16.887Z,43.70
2017-11-09T11:25:16.941Z,44.40
2017-11-09T11:26:16.968Z,43.80
2017-11-09T11:27:17.016Z,44.10
2017-11-09T11:28:17.046Z,43.80
2017-11-09T11:29:17.074Z,44.30
2017-11-09T11:30:17.111Z,44.40
2017-11-09T11:31:17.148Z,43.40
2017-11-09T11:32:17.190Z,45.50
2017-11-09T11:33:17.226Z,44.40
2017-11-09T11:34:17.338Z,43.80
2017-11-09T11:35:17.300Z,43.80
2017-11-09T11:36:17.338Z,42.90
2017-11-09T11:37:17.370Z,43.70
2017-11-09T11:38:17.407Z,42.50
2017-11-09T11:39:17.444Z,43.80
2017-11-09T11:40:17.480Z,44.30
2017-11-09T11:41:17.518Z,42.50
2017-11-09T11:42:17.555Z,43.20
2017-11-09T11:43:17.590Z,41.20
2017-11-09T11:44:17.631Z,41.70
2017-11-09T11:45:17.666Z,40.10
2017-11-09T11:46:17.706Z,42.60
2017-11-09T11:47:17.741Z,41.50
2017-11-09T11:48:17.777Z,41.10
2017-11-09T11:49:17.815Z,43.50
2017-11-09T11:50:17.852Z,43.60
2017-11-09T11:51:17.889Z,42.20
2017-11-09T11:52:17.928Z,43.30
2017-11-09T11:53:17.962Z,45.90
2017-11-09T11:54:17.998Z,44.20
2017-11-09T11:55:18.037Z,48.70
2017-11-09T11:56:18.075Z,51.60
2017-11-09T11:57:18.115Z,49.50
2017-11-09T11:58:18.151Z,49.50
2017-11-09T11:59:18.181Z,49.70
2017-11-09T12:00:18.221Z,47.70
2017-11-09T12:01:18.263Z,46.80
2017-11-09T12:02:18.294Z,46.40
2017-11-09T12:03:18.328Z,45.40
2017-11-09T12:04:18.368Z,45.40
2017-11-09T12:05:18.405Z,43.00
2017-11-09T12:06:18.440Z,48.30
2017-11-09T12:07:18.483Z,42.50
2017-11-09T12:08:18.518Z,41.30
2017-11-09T12:09:18.550Z,46.80
2017-11-09T12:10:18.652Z,43.90
2017-11-09T12:11:18.623Z,44.70
2017-11-09T12:12:18.668Z,43.80
2017-11-09T12:13:18.699Z,43.00
2017-11-09T12:14:18.736Z,45.10
2017-11-09T12:15:18.772Z,41.30
2017-11-09T12:16:18.806Z,42.30
2017-11-09T12:17:18.844Z,43.20
2017-11-09T12:18:18.877Z,43.80
2017-11-09T12:19:18.922Z,43.10
2017-11-09T12:20:18.950Z,44.40
2017-11-09T12:21:18.988Z,45.40
2017-11-09T12:22:19.028Z,42.60
2017-11-09T12:23:19.062Z,42.60
2017-11-09T12:24:19.110Z,41.50
2017-11-09T12:25:19.132Z,40.00
2017-11-09T12:26:19.173Z,37.60
2017-11-09T12:27:19.208Z,39.90
2017-11-09T12:28:19.250Z,38.00
2017-11-09T12:29:19.281Z,38.60
2017-11-09T12:30:19.318Z,37.00
2017-11-09T12:31:19.351Z,39.40
2017-11-09T12:32:19.389Z,38.70
2017-11-09T12:33:19.433Z,37.70
2017-11-09T12:34:19.461Z,37.90
2017-11-09T12:35:19.498Z,38.90
2017-11-09T12:36:19.536Z,36.40
2017-11-09T12:37:19.572Z,39.20
2017-11-09T12:38:19.610Z,37.10
2017-11-09T12:39:19.643Z,37.20
2017-11-09T12:40:19.679Z,38.20
2017-11-09T12:41:19.719Z,39.70
2017-11-09T12:42:19.751Z,40.60
2017-11-09T12:43:19.790Z,38.80
2017-11-09T12:44:19.824Z,40.30
2017-11-09T12:45:19.861Z,39.50
2017-11-09T12:46:19.899Z,38.80
2017-11-09T12:47:19.934Z,39.00
2017-11-09T12:48:19.982Z,41.20
2017-11-09T12:49:20.010Z,38.00
2017-11-09T12:50:20.041Z,40.50
2017-11-09T12:51:20.079Z,40.00
2017-11-09T12:52:20.114Z,40.20
2017-11-09T12:53:20.156Z,39.90